sensor_id;sensor_type;location;lat;lon;timestamp;temperature;humidity
65034;DHT22;51601;51.356;12.458;2023-04-24T00:04:04;14.00;91.60
65034;DHT22;51601;51.356;12.458;2023-04-24T00:08:32;14.00;92.40
65034;DHT22;51601;51.356;12.458;2023-04-24T00:12:56;14.00;93.90
65034;DHT22;51601;51.356;12.458;2023-04-24T00:17:21;14.00;95.30
65034;DHT22;51601;51.356;12.458;2023-04-24T00:21:46;13.90;96.70
65034;DHT22;51601;51.356;12.458;2023-04-24T00:26:12;13.80;97.50
65034;DHT22;51601;51.356;12.458;2023-04-24T00:30:36;13.70;97.70
65034;DHT22;51601;51.356;12.458;2023-04-24T00:35:01;13.60;97.80
65034;DHT22;51601;51.356;12.458;2023-04-24T00:39:25;13.60;97.80
65034;DHT22;51601;51.356;12.458;2023-04-24T00:43:49;13.50;97.70
65034;DHT22;51601;51.356;12.458;2023-04-24T00:48:14;13.50;97.70
65034;DHT22;51601;51.356;12.458;2023-04-24T00:52:40;13.50;97.70
65034;DHT22;51601;51.356;12.458;2023-04-24T00:57:04;13.50;97.80
65034;DHT22;51601;51.356;12.458;2023-04-24T01:01:28;13.40;98.10
65034;DHT22;51601;51.356;12.458;2023-04-24T01:05:54;13.40;98.40
65034;DHT22;51601;51.356;12.458;2023-04-24T01:10:20;13.30;98.80
65034;DHT22;51601;51.356;12.458;2023-04-24T01:14:44;13.20;99.20
65034;DHT22;51601;51.356;12.458;2023-04-24T01:19:11;13.20;99.50
65034;DHT22;51601;51.356;12.458;2023-04-24T01:23:38;13.10;99.70
65034;DHT22;51601;51.356;12.458;2023-04-24T01:28:02;13.00;99.90
65034;DHT22;51601;51.356;12.458;2023-04-24T01:32:27;13.00;99.90
65034;DHT22;51601;51.356;12.458;2023-04-24T01:36:51;13.00;99.90
65034;DHT22;51601;51.356;12.458;2023-04-24T01:41:17;13.00;99.90
65034;DHT22;51601;51.356;12.458;2023-04-24T01:45:44;13.00;99.50
65034;DHT22;51601;51.356;12.458;2023-04-24T01:50:18;12.90;99.30
65034;DHT22;51601;51.356;12.458;2023-04-24T01:54:42;12.90;99.20
65034;DHT22;51601;51.356;12.458;2023-04-24T01:59:09;12.80;99.20
65034;DHT22;51601;51.356;12.458;2023-04-24T02:03:33;12.70;99.20
65034;DHT22;51601;51.356;12.458;2023-04-24T02:07:57;12.70;99.30
65034;DHT22;51601;51.356;12.458;2023-04-24T02:12:21;12.60;99.50
65034;DHT22;51601;51.356;12.458;2023-04-24T02:16:48;12.50;99.60
65034;DHT22;51601;51.356;12.458;2023-04-24T02:21:12;12.50;99.80
65034;DHT22;51601;51.356;12.458;2023-04-24T02:25:36;12.40;99.90
65034;DHT22;51601;51.356;12.458;2023-04-24T02:30:01;12.30;99.90
65034;DHT22;51601;51.356;12.458;2023-04-24T02:34:26;12.30;99.90
65034;DHT22;51601;51.356;12.458;2023-04-24T02:38:51;12.30;99.90
65034;DHT22;51601;51.356;12.458;2023-04-24T02:43:15;12.30;99.90
65034;DHT22;51601;51.356;12.458;2023-04-24T02:47:39;12.20;99.90
65034;DHT22;51601;51.356;12.458;2023-04-24T02:52:04;12.20;99.90
65034;DHT22;51601;51.356;12.458;2023-04-24T02:56:28;12.20;99.90
65034;DHT22;51601;51.356;12.458;2023-04-24T03:00:54;12.10;99.90
65034;DHT22;51601;51.356;12.458;2023-04-24T03:05:19;12.10;99.90
65034;DHT22;51601;51.356;12.458;2023-04-24T03:09:45;12.10;99.90
65034;DHT22;51601;51.356;12.458;2023-04-24T03:14:10;12.00;99.90
65034;DHT22;51601;51.356;12.458;2023-04-24T03:18:34;12.00;99.90
65034;DHT22;51601;51.356;12.458;2023-04-24T03:23:00;11.90;99.90
65034;DHT22;51601;51.356;12.458;2023-04-24T03:27:25;11.90;99.90
65034;DHT22;51601;51.356;12.458;2023-04-24T03:31:57;11.90;99.90
65034;DHT22;51601;51.356;12.458;2023-04-24T03:36:21;11.80;99.90
65034;DHT22;51601;51.356;12.458;2023-04-24T03:40:45;11.80;99.90
65034;DHT22;51601;51.356;12.458;2023-04-24T03:45:30;11.80;99.90
65034;DHT22;51601;51.356;12.458;2023-04-24T03:49:55;11.80;99.90
65034;DHT22;51601;51.356;12.458;2023-04-24T03:54:20;11.80;99.90
65034;DHT22;51601;51.356;12.458;2023-04-24T03:58:45;11.80;99.90
65034;DHT22;51601;51.356;12.458;2023-04-24T04:03:11;11.80;99.80
65034;DHT22;51601;51.356;12.458;2023-04-24T04:07:37;11.70;99.70
65034;DHT22;51601;51.356;12.458;2023-04-24T04:12:03;11.70;99.70
65034;DHT22;51601;51.356;12.458;2023-04-24T04:16:28;11.80;99.70
65034;DHT22;51601;51.356;12.458;2023-04-24T04:20:58;11.80;99.60
65034;DHT22;51601;51.356;12.458;2023-04-24T04:25:24;11.70;99.40
65034;DHT22;51601;51.356;12.458;2023-04-24T04:29:49;11.80;99.30
65034;DHT22;51601;51.356;12.458;2023-04-24T04:34:13;11.80;99.20
65034;DHT22;51601;51.356;12.458;2023-04-24T04:38:38;11.90;99.20
65034;DHT22;51601;51.356;12.458;2023-04-24T04:43:16;11.90;99.20
65034;DHT22;51601;51.356;12.458;2023-04-24T04:47:46;11.90;99.20
65034;DHT22;51601;51.356;12.458;2023-04-24T04:52:10;12.00;99.10
65034;DHT22;51601;51.356;12.458;2023-04-24T04:56:36;12.10;99.00
65034;DHT22;51601;51.356;12.458;2023-04-24T05:01:01;12.10;98.80
65034;DHT22;51601;51.356;12.458;2023-04-24T05:05:34;12.20;98.80
65034;DHT22;51601;51.356;12.458;2023-04-24T05:09:58;12.30;98.50
65034;DHT22;51601;51.356;12.458;2023-04-24T05:14:23;12.40;98.30
65034;DHT22;51601;51.356;12.458;2023-04-24T05:18:48;12.50;97.90
65034;DHT22;51601;51.356;12.458;2023-04-24T05:23:16;12.70;97.40
65034;DHT22;51601;51.356;12.458;2023-04-24T05:27:44;12.90;97.30
65034;DHT22;51601;51.356;12.458;2023-04-24T05:32:12;13.40;97.10
65034;DHT22;51601;51.356;12.458;2023-04-24T05:36:36;13.90;94.20
65034;DHT22;51601;51.356;12.458;2023-04-24T05:41:00;14.20;90.80
65034;DHT22;51601;51.356;12.458;2023-04-24T05:45:24;14.20;89.40
65034;DHT22;51601;51.356;12.458;2023-04-24T05:49:51;14.30;88.90
65034;DHT22;51601;51.356;12.458;2023-04-24T05:54:15;14.50;88.20
65034;DHT22;51601;51.356;12.458;2023-04-24T05:58:40;14.80;86.20
65034;DHT22;51601;51.356;12.458;2023-04-24T06:03:06;15.00;84.10
65034;DHT22;51601;51.356;12.458;2023-04-24T06:07:32;15.40;82.50
65034;DHT22;51601;51.356;12.458;2023-04-24T06:11:59;15.80;76.70
65034;DHT22;51601;51.356;12.458;2023-04-24T06:16:34;16.00;73.80
65034;DHT22;51601;51.356;12.458;2023-04-24T06:21:06;16.20;73.20
65034;DHT22;51601;51.356;12.458;2023-04-24T06:25:31;16.60;72.10
65034;DHT22;51601;51.356;12.458;2023-04-24T06:29:55;17.00;71.20
65034;DHT22;51601;51.356;12.458;2023-04-24T06:34:19;17.30;68.20
65034;DHT22;51601;51.356;12.458;2023-04-24T06:38:43;17.10;67.30
65034;DHT22;51601;51.356;12.458;2023-04-24T06:43:09;16.70;66.80
65034;DHT22;51601;51.356;12.458;2023-04-24T06:47:35;16.30;67.50
65034;DHT22;51601;51.356;12.458;2023-04-24T06:51:59;16.00;68.40
65034;DHT22;51601;51.356;12.458;2023-04-24T06:56:23;15.60;69.30
65034;DHT22;51601;51.356;12.458;2023-04-24T07:00:49;15.20;70.60
65034;DHT22;51601;51.356;12.458;2023-04-24T07:05:13;14.90;72.00
65034;DHT22;51601;51.356;12.458;2023-04-24T07:09:38;14.70;73.30
65034;DHT22;51601;51.356;12.458;2023-04-24T07:14:05;14.70;74.00
65034;DHT22;51601;51.356;12.458;2023-04-24T07:18:30;14.70;74.70
65034;DHT22;51601;51.356;12.458;2023-04-24T07:22:54;14.80;74.50
65034;DHT22;51601;51.356;12.458;2023-04-24T07:27:18;14.80;74.80
65034;DHT22;51601;51.356;12.458;2023-04-24T07:31:42;15.00;75.20
65034;DHT22;51601;51.356;12.458;2023-04-24T07:36:08;15.30;73.90
65034;DHT22;51601;51.356;12.458;2023-04-24T07:40:38;15.50;72.10
65034;DHT22;51601;51.356;12.458;2023-04-24T07:45:02;15.50;71.80
65034;DHT22;51601;51.356;12.458;2023-04-24T07:49:26;15.70;72.50
65034;DHT22;51601;51.356;12.458;2023-04-24T07:53:51;16.20;71.40
65034;DHT22;51601;51.356;12.458;2023-04-24T07:58:15;16.70;68.70
65034;DHT22;51601;51.356;12.458;2023-04-24T08:02:39;17.00;66.70
65034;DHT22;51601;51.356;12.458;2023-04-24T08:07:04;17.10;65.10
65034;DHT22;51601;51.356;12.458;2023-04-24T08:11:29;17.20;64.80
65034;DHT22;51601;51.356;12.458;2023-04-24T08:15:54;17.50;63.80
65034;DHT22;51601;51.356;12.458;2023-04-24T08:20:19;17.80;63.50
65034;DHT22;51601;51.356;12.458;2023-04-24T08:24:43;18.10;62.90
65034;DHT22;51601;51.356;12.458;2023-04-24T08:29:08;18.50;61.30
65034;DHT22;51601;51.356;12.458;2023-04-24T08:33:35;19.00;59.90
65034;DHT22;51601;51.356;12.458;2023-04-24T08:37:59;19.30;59.20
65034;DHT22;51601;51.356;12.458;2023-04-24T08:42:23;19.90;58.30
65034;DHT22;51601;51.356;12.458;2023-04-24T08:46:49;20.30;56.70
65034;DHT22;51601;51.356;12.458;2023-04-24T08:51:14;20.30;55.50
65034;DHT22;51601;51.356;12.458;2023-04-24T08:55:38;20.10;54.00
65034;DHT22;51601;51.356;12.458;2023-04-24T09:00:06;19.60;53.50
65034;DHT22;51601;51.356;12.458;2023-04-24T09:04:35;19.00;54.60
65034;DHT22;51601;51.356;12.458;2023-04-24T09:09:00;19.00;55.30
65034;DHT22;51601;51.356;12.458;2023-04-24T09:13:26;20.00;54.50
65034;DHT22;51601;51.356;12.458;2023-04-24T09:17:51;20.80;51.80
65034;DHT22;51601;51.356;12.458;2023-04-24T09:22:16;21.20;50.10
65034;DHT22;51601;51.356;12.458;2023-04-24T09:26:40;21.20;49.30
65034;DHT22;51601;51.356;12.458;2023-04-24T09:31:06;20.80;48.90
65034;DHT22;51601;51.356;12.458;2023-04-24T09:35:32;20.20;49.80
65034;DHT22;51601;51.356;12.458;2023-04-24T09:40:12;19.50;51.30
65034;DHT22;51601;51.356;12.458;2023-04-24T09:44:36;18.80;52.80
65034;DHT22;51601;51.356;12.458;2023-04-24T09:49:07;18.30;54.10
65034;DHT22;51601;51.356;12.458;2023-04-24T09:53:32;17.70;55.20
65034;DHT22;51601;51.356;12.458;2023-04-24T09:58:02;17.30;56.00
65034;DHT22;51601;51.356;12.458;2023-04-24T10:02:32;16.90;56.30
65034;DHT22;51601;51.356;12.458;2023-04-24T10:06:56;16.70;56.20
65034;DHT22;51601;51.356;12.458;2023-04-24T10:11:20;16.70;57.00
65034;DHT22;51601;51.356;12.458;2023-04-24T10:15:48;17.20;56.70
65034;DHT22;51601;51.356;12.458;2023-04-24T10:20:12;18.10;55.20
65034;DHT22;51601;51.356;12.458;2023-04-24T10:24:36;19.10;53.60
65034;DHT22;51601;51.356;12.458;2023-04-24T10:29:01;19.90;50.70
65034;DHT22;51601;51.356;12.458;2023-04-24T10:33:26;20.00;48.90
65034;DHT22;51601;51.356;12.458;2023-04-24T10:37:54;19.60;48.30
65034;DHT22;51601;51.356;12.458;2023-04-24T10:42:19;19.10;49.00
65034;DHT22;51601;51.356;12.458;2023-04-24T10:46:45;18.70;49.30
65034;DHT22;51601;51.356;12.458;2023-04-24T10:51:15;18.50;49.30
65034;DHT22;51601;51.356;12.458;2023-04-24T10:55:43;18.70;49.20
65034;DHT22;51601;51.356;12.458;2023-04-24T11:00:18;19.00;48.70
65034;DHT22;51601;51.356;12.458;2023-04-24T11:04:43;19.70;47.40
65034;DHT22;51601;51.356;12.458;2023-04-24T11:09:11;20.40;46.90
65034;DHT22;51601;51.356;12.458;2023-04-24T11:14:01;21.40;44.10
65034;DHT22;51601;51.356;12.458;2023-04-24T11:18:25;22.00;42.40
65034;DHT22;51601;51.356;12.458;2023-04-24T11:22:53;22.30;41.00
65034;DHT22;51601;51.356;12.458;2023-04-24T11:27:21;22.30;40.60
65034;DHT22;51601;51.356;12.458;2023-04-24T11:31:45;22.20;39.90
65034;DHT22;51601;51.356;12.458;2023-04-24T11:36:12;21.70;39.40
65034;DHT22;51601;51.356;12.458;2023-04-24T11:40:37;21.10;39.70
65034;DHT22;51601;51.356;12.458;2023-04-24T11:45:10;20.90;40.00
65034;DHT22;51601;51.356;12.458;2023-04-24T11:49:36;21.10;39.50
65034;DHT22;51601;51.356;12.458;2023-04-24T11:54:00;21.10;39.20
65034;DHT22;51601;51.356;12.458;2023-04-24T11:58:26;21.20;39.10
65034;DHT22;51601;51.356;12.458;2023-04-24T12:02:51;21.20;38.80
65034;DHT22;51601;51.356;12.458;2023-04-24T12:07:15;20.80;38.20
65034;DHT22;51601;51.356;12.458;2023-04-24T12:11:52;20.20;38.90
65034;DHT22;51601;51.356;12.458;2023-04-24T12:16:17;19.70;39.90
65034;DHT22;51601;51.356;12.458;2023-04-24T12:20:42;19.20;40.90
65034;DHT22;51601;51.356;12.458;2023-04-24T12:25:10;18.90;41.30
65034;DHT22;51601;51.356;12.458;2023-04-24T12:29:34;18.50;41.40
65034;DHT22;51601;51.356;12.458;2023-04-24T12:33:58;18.30;41.90
65034;DHT22;51601;51.356;12.458;2023-04-24T12:38:25;18.10;42.90
65034;DHT22;51601;51.356;12.458;2023-04-24T12:42:50;18.00;43.50
65034;DHT22;51601;51.356;12.458;2023-04-24T12:47:17;18.00;43.20
65034;DHT22;51601;51.356;12.458;2023-04-24T12:51:41;18.00;43.30
65034;DHT22;51601;51.356;12.458;2023-04-24T12:56:06;18.00;43.30
65034;DHT22;51601;51.356;12.458;2023-04-24T13:00:30;18.00;43.30
65034;DHT22;51601;51.356;12.458;2023-04-24T13:04:54;18.10;43.30
65034;DHT22;51601;51.356;12.458;2023-04-24T13:09:18;18.20;42.50
65034;DHT22;51601;51.356;12.458;2023-04-24T13:13:44;18.20;42.40
65034;DHT22;51601;51.356;12.458;2023-04-24T13:18:08;18.10;42.60
65034;DHT22;51601;51.356;12.458;2023-04-24T13:22:32;18.10;42.30
65034;DHT22;51601;51.356;12.458;2023-04-24T13:27:00;18.00;42.20
65034;DHT22;51601;51.356;12.458;2023-04-24T13:31:26;18.10;41.90
65034;DHT22;51601;51.356;12.458;2023-04-24T13:35:50;18.10;42.10
65034;DHT22;51601;51.356;12.458;2023-04-24T13:40:14;18.20;42.10
65034;DHT22;51601;51.356;12.458;2023-04-24T13:44:38;18.20;42.20
65034;DHT22;51601;51.356;12.458;2023-04-24T13:49:03;18.30;42.20
65034;DHT22;51601;51.356;12.458;2023-04-24T13:53:27;18.40;42.10
65034;DHT22;51601;51.356;12.458;2023-04-24T13:57:51;18.40;43.10
65034;DHT22;51601;51.356;12.458;2023-04-24T14:02:18;18.40;42.10
65034;DHT22;51601;51.356;12.458;2023-04-24T14:06:44;18.20;41.80
65034;DHT22;51601;51.356;12.458;2023-04-24T14:11:08;17.90;42.60
65034;DHT22;51601;51.356;12.458;2023-04-24T14:15:32;17.70;43.20
65034;DHT22;51601;51.356;12.458;2023-04-24T14:19:56;17.50;43.60
65034;DHT22;51601;51.356;12.458;2023-04-24T14:24:24;17.50;43.60
65034;DHT22;51601;51.356;12.458;2023-04-24T14:28:48;17.50;43.50
65034;DHT22;51601;51.356;12.458;2023-04-24T14:33:14;17.50;43.50
65034;DHT22;51601;51.356;12.458;2023-04-24T14:37:37;17.50;44.10
65034;DHT22;51601;51.356;12.458;2023-04-24T14:42:05;17.50;44.40
65034;DHT22;51601;51.356;12.458;2023-04-24T14:46:29;17.40;45.00
65034;DHT22;51601;51.356;12.458;2023-04-24T14:50:53;17.30;44.60
65034;DHT22;51601;51.356;12.458;2023-04-24T14:55:17;17.20;45.30
65034;DHT22;51601;51.356;12.458;2023-04-24T14:59:42;17.00;45.90
65034;DHT22;51601;51.356;12.458;2023-04-24T15:04:06;16.90;46.60
65034;DHT22;51601;51.356;12.458;2023-04-24T15:08:30;16.60;47.60
65034;DHT22;51601;51.356;12.458;2023-04-24T15:12:54;16.40;49.00
65034;DHT22;51601;51.356;12.458;2023-04-24T15:17:19;16.00;49.20
65034;DHT22;51601;51.356;12.458;2023-04-24T15:21:43;15.70;50.00
65034;DHT22;51601;51.356;12.458;2023-04-24T15:26:07;15.50;50.80
65034;DHT22;51601;51.356;12.458;2023-04-24T15:30:31;15.40;51.60
65034;DHT22;51601;51.356;12.458;2023-04-24T15:34:57;15.40;51.90
65034;DHT22;51601;51.356;12.458;2023-04-24T15:39:30;15.40;52.20
65034;DHT22;51601;51.356;12.458;2023-04-24T15:43:54;15.40;52.30
65034;DHT22;51601;51.356;12.458;2023-04-24T15:48:18;15.20;52.70
65034;DHT22;51601;51.356;12.458;2023-04-24T15:52:44;15.00;53.50
65034;DHT22;51601;51.356;12.458;2023-04-24T15:57:08;14.90;54.40
65034;DHT22;51601;51.356;12.458;2023-04-24T16:01:32;14.80;54.30
65034;DHT22;51601;51.356;12.458;2023-04-24T16:05:56;14.70;54.10
65034;DHT22;51601;51.356;12.458;2023-04-24T16:10:21;14.60;53.40
65034;DHT22;51601;51.356;12.458;2023-04-24T16:14:45;14.60;52.50
65034;DHT22;51601;51.356;12.458;2023-04-24T16:19:09;14.50;52.30
65034;DHT22;51601;51.356;12.458;2023-04-24T16:23:34;14.40;52.50
65034;DHT22;51601;51.356;12.458;2023-04-24T16:27:59;14.30;53.00
65034;DHT22;51601;51.356;12.458;2023-04-24T16:32:23;14.10;53.30
65034;DHT22;51601;51.356;12.458;2023-04-24T16:36:47;14.00;53.70
65034;DHT22;51601;51.356;12.458;2023-04-24T16:41:11;13.80;54.00
65034;DHT22;51601;51.356;12.458;2023-04-24T16:45:36;13.80;54.30
65034;DHT22;51601;51.356;12.458;2023-04-24T16:50:01;13.70;54.60
65034;DHT22;51601;51.356;12.458;2023-04-24T16:54:25;13.60;54.80
65034;DHT22;51601;51.356;12.458;2023-04-24T16:58:49;13.50;55.10
65034;DHT22;51601;51.356;12.458;2023-04-24T17:03:14;13.40;55.60
65034;DHT22;51601;51.356;12.458;2023-04-24T17:07:39;13.30;56.10
65034;DHT22;51601;51.356;12.458;2023-04-24T17:12:03;13.20;56.40
65034;DHT22;51601;51.356;12.458;2023-04-24T17:16:28;13.20;56.70
65034;DHT22;51601;51.356;12.458;2023-04-24T17:20:53;13.10;56.80
65034;DHT22;51601;51.356;12.458;2023-04-24T17:25:17;13.00;57.30
65034;DHT22;51601;51.356;12.458;2023-04-24T17:29:41;12.90;57.60
65034;DHT22;51601;51.356;12.458;2023-04-24T17:34:04;12.80;58.00
65034;DHT22;51601;51.356;12.458;2023-04-24T17:38:30;12.80;58.50
65034;DHT22;51601;51.356;12.458;2023-04-24T17:42:54;12.80;58.70
65034;DHT22;51601;51.356;12.458;2023-04-24T17:47:18;12.80;59.00
65034;DHT22;51601;51.356;12.458;2023-04-24T17:51:44;12.70;59.20
65034;DHT22;51601;51.356;12.458;2023-04-24T17:56:09;12.60;59.40
65034;DHT22;51601;51.356;12.458;2023-04-24T18:00:34;12.60;59.70
65034;DHT22;51601;51.356;12.458;2023-04-24T18:04:58;12.50;60.00
65034;DHT22;51601;51.356;12.458;2023-04-24T18:09:22;12.40;60.30
65034;DHT22;51601;51.356;12.458;2023-04-24T18:13:48;12.30;60.70
65034;DHT22;51601;51.356;12.458;2023-04-24T18:18:12;12.20;61.10
65034;DHT22;51601;51.356;12.458;2023-04-24T18:22:36;12.10;61.40
65034;DHT22;51601;51.356;12.458;2023-04-24T18:27:00;12.00;61.80
65034;DHT22;51601;51.356;12.458;2023-04-24T18:31:26;11.90;62.50
65034;DHT22;51601;51.356;12.458;2023-04-24T18:35:50;11.80;62.90
65034;DHT22;51601;51.356;12.458;2023-04-24T18:40:15;11.70;63.30
65034;DHT22;51601;51.356;12.458;2023-04-24T18:44:39;11.50;63.50
65034;DHT22;51601;51.356;12.458;2023-04-24T18:49:06;11.50;64.10
65034;DHT22;51601;51.356;12.458;2023-04-24T18:53:30;11.30;64.40
65034;DHT22;51601;51.356;12.458;2023-04-24T18:57:54;11.20;65.10
65034;DHT22;51601;51.356;12.458;2023-04-24T19:02:18;11.10;65.60
65034;DHT22;51601;51.356;12.458;2023-04-24T19:06:44;11.00;66.00
65034;DHT22;51601;51.356;12.458;2023-04-24T19:11:08;10.90;66.30
65034;DHT22;51601;51.356;12.458;2023-04-24T19:15:32;10.80;66.80
65034;DHT22;51601;51.356;12.458;2023-04-24T19:19:56;10.70;67.70
65034;DHT22;51601;51.356;12.458;2023-04-24T19:24:22;10.70;68.20
65034;DHT22;51601;51.356;12.458;2023-04-24T19:28:47;10.80;68.20
65034;DHT22;51601;51.356;12.458;2023-04-24T19:33:12;10.80;67.90
65034;DHT22;51601;51.356;12.458;2023-04-24T19:37:36;10.80;67.20
65034;DHT22;51601;51.356;12.458;2023-04-24T19:42:02;10.80;66.30
65034;DHT22;51601;51.356;12.458;2023-04-24T19:46:29;10.80;65.50
65034;DHT22;51601;51.356;12.458;2023-04-24T19:50:53;10.70;65.10
65034;DHT22;51601;51.356;12.458;2023-04-24T19:55:17;10.60;64.80
65034;DHT22;51601;51.356;12.458;2023-04-24T19:59:42;10.50;64.90
65034;DHT22;51601;51.356;12.458;2023-04-24T20:04:06;10.30;66.00
65034;DHT22;51601;51.356;12.458;2023-04-24T20:08:33;10.20;66.20
65034;DHT22;51601;51.356;12.458;2023-04-24T20:13:00;10.10;66.00
65034;DHT22;51601;51.356;12.458;2023-04-24T20:17:25;9.90;66.30
65034;DHT22;51601;51.356;12.458;2023-04-24T20:21:49;9.80;66.80
65034;DHT22;51601;51.356;12.458;2023-04-24T20:26:13;9.70;67.10
65034;DHT22;51601;51.356;12.458;2023-04-24T20:30:37;9.70;67.40
65034;DHT22;51601;51.356;12.458;2023-04-24T20:35:03;9.60;67.80
65034;DHT22;51601;51.356;12.458;2023-04-24T20:39:27;9.50;68.00
65034;DHT22;51601;51.356;12.458;2023-04-24T20:43:51;9.50;68.00
65034;DHT22;51601;51.356;12.458;2023-04-24T20:48:16;9.50;68.10
65034;DHT22;51601;51.356;12.458;2023-04-24T20:52:42;9.40;68.00
65034;DHT22;51601;51.356;12.458;2023-04-24T20:57:06;9.40;67.90
65034;DHT22;51601;51.356;12.458;2023-04-24T21:01:30;9.40;67.80
65034;DHT22;51601;51.356;12.458;2023-04-24T21:05:54;9.40;67.90
65034;DHT22;51601;51.356;12.458;2023-04-24T21:10:19;9.40;68.00
65034;DHT22;51601;51.356;12.458;2023-04-24T21:14:44;9.40;67.90
65034;DHT22;51601;51.356;12.458;2023-04-24T21:19:10;9.50;67.80
65034;DHT22;51601;51.356;12.458;2023-04-24T21:23:34;9.50;67.70
65034;DHT22;51601;51.356;12.458;2023-04-24T21:28:00;9.50;67.70
65034;DHT22;51601;51.356;12.458;2023-04-24T21:32:25;9.40;67.80
65034;DHT22;51601;51.356;12.458;2023-04-24T21:36:49;9.30;67.90
65034;DHT22;51601;51.356;12.458;2023-04-24T21:41:13;9.20;68.10
65034;DHT22;51601;51.356;12.458;2023-04-24T21:45:39;9.20;68.40
65034;DHT22;51601;51.356;12.458;2023-04-24T21:50:07;9.10;68.60
65034;DHT22;51601;51.356;12.458;2023-04-24T21:54:31;9.00;68.70
65034;DHT22;51601;51.356;12.458;2023-04-24T21:58:55;9.00;68.80
65034;DHT22;51601;51.356;12.458;2023-04-24T22:03:21;9.00;68.90
65034;DHT22;51601;51.356;12.458;2023-04-24T22:07:45;8.90;68.90
65034;DHT22;51601;51.356;12.458;2023-04-24T22:12:12;8.90;69.20
65034;DHT22;51601;51.356;12.458;2023-04-24T22:16:36;8.90;69.50
65034;DHT22;51601;51.356;12.458;2023-04-24T22:21:04;8.90;69.80
65034;DHT22;51601;51.356;12.458;2023-04-24T22:25:29;9.00;70.00
65034;DHT22;51601;51.356;12.458;2023-04-24T22:29:53;9.10;69.90
65034;DHT22;51601;51.356;12.458;2023-04-24T22:34:18;9.20;69.90
65034;DHT22;51601;51.356;12.458;2023-04-24T22:38:44;9.30;69.70
65034;DHT22;51601;51.356;12.458;2023-04-24T22:43:08;9.40;69.50
65034;DHT22;51601;51.356;12.458;2023-04-24T22:47:32;9.50;69.30
65034;DHT22;51601;51.356;12.458;2023-04-24T22:51:56;9.50;69.00
65034;DHT22;51601;51.356;12.458;2023-04-24T22:56:22;9.50;68.90
65034;DHT22;51601;51.356;12.458;2023-04-24T23:00:46;9.40;69.70
65034;DHT22;51601;51.356;12.458;2023-04-24T23:05:10;9.30;69.20
65034;DHT22;51601;51.356;12.458;2023-04-24T23:09:34;9.20;69.40
65034;DHT22;51601;51.356;12.458;2023-04-24T23:14:00;9.10;70.30
65034;DHT22;51601;51.356;12.458;2023-04-24T23:18:24;9.00;69.90
65034;DHT22;51601;51.356;12.458;2023-04-24T23:22:48;9.00;70.10
65034;DHT22;51601;51.356;12.458;2023-04-24T23:27:12;8.90;70.40
65034;DHT22;51601;51.356;12.458;2023-04-24T23:31:38;8.80;70.80
65034;DHT22;51601;51.356;12.458;2023-04-24T23:36:03;8.70;71.40
65034;DHT22;51601;51.356;12.458;2023-04-24T23:40:27;8.60;71.80
65034;DHT22;51601;51.356;12.458;2023-04-24T23:44:51;8.40;72.20
65034;DHT22;51601;51.356;12.458;2023-04-24T23:49:16;8.40;72.90
65034;DHT22;51601;51.356;12.458;2023-04-24T23:53:40;8.40;73.40
65034;DHT22;51601;51.356;12.458;2023-04-24T23:58:04;8.40;73.80
